createdAt,value
2022-08-03T00:01:00.407Z,94.82
2022-08-03T00:01:54.547Z,94.71
2022-08-03T00:02:54.247Z,94.82
2022-08-03T00:03:54.084Z,94.71
2022-08-03T00:04:54.098Z,94.50
2022-08-03T00:06:04.656Z,94.92
2022-08-03T00:07:01.945Z,94.50
2022-08-03T00:07:54.377Z,94.71
2022-08-03T00:08:54.351Z,94.39
2022-08-03T00:09:54.030Z,94.60
2022-08-03T00:10:54.004Z,95.14
2022-08-03T00:12:00.462Z,95.03
2022-08-03T00:12:54.010Z,94.39
2022-08-03T00:13:53.985Z,94.50
2022-08-03T00:14:54.028Z,95.03
2022-08-03T00:15:54.992Z,94.18
2022-08-03T00:17:00.276Z,94.50
2022-08-03T00:17:54.194Z,94.39
2022-08-03T00:18:53.924Z,94.50
2022-08-03T00:19:53.906Z,94.50
2022-08-03T00:20:53.877Z,94.50
2022-08-03T00:22:00.198Z,94.39
2022-08-03T00:22:53.871Z,94.39
2022-08-03T00:23:54.201Z,94.39
2022-08-03T00:24:53.887Z,94.60
2022-08-03T00:25:54.108Z,94.60
2022-08-03T00:27:00.101Z,94.50
2022-08-03T00:27:53.840Z,94.60
2022-08-03T00:28:53.858Z,94.92
2022-08-03T00:30:00.060Z,94.71
2022-08-03T00:30:55.260Z,94.92
2022-08-03T00:32:00.621Z,94.50
2022-08-03T00:32:53.986Z,94.71
2022-08-03T00:33:59.567Z,94.92
2022-08-03T00:34:57.547Z,94.92
2022-08-03T00:35:53.797Z,94.71
2022-08-03T00:36:53.783Z,95.03
2022-08-03T00:37:59.959Z,94.82
2022-08-03T00:38:53.677Z,95.14
2022-08-03T00:39:53.702Z,95.03
2022-08-03T00:40:55.131Z,95.03
2022-08-03T00:41:53.681Z,95.14
2022-08-03T00:42:53.646Z,95.03
2022-08-03T00:43:59.904Z,95.36
2022-08-03T00:44:53.569Z,95.46
2022-08-03T00:45:53.731Z,95.36
2022-08-03T00:46:53.841Z,95.25
2022-08-03T00:47:53.559Z,95.36
2022-08-03T00:48:54.517Z,95.25
2022-08-03T00:50:00.727Z,95.25
2022-08-03T00:50:54.884Z,95.25
2022-08-03T00:51:53.811Z,95.36
2022-08-03T00:52:53.494Z,95.14
2022-08-03T00:53:53.486Z,95.36
2022-08-03T00:54:53.526Z,95.14
2022-08-03T00:55:59.717Z,95.36
2022-08-03T00:56:59.870Z,94.92
2022-08-03T00:57:56.086Z,95.03
2022-08-03T00:58:54.390Z,95.14
2022-08-03T00:59:53.432Z,95.25
2022-08-03T01:00:54.402Z,95.03
2022-08-03T01:01:59.751Z,95.14
2022-08-03T01:02:53.351Z,94.92
2022-08-03T01:03:53.367Z,94.92
2022-08-03T01:04:54.296Z,94.71
2022-08-03T01:05:53.322Z,95.03
2022-08-03T01:06:53.602Z,94.71
2022-08-03T01:07:59.694Z,94.60
2022-08-03T01:08:53.299Z,94.92
2022-08-03T01:09:53.262Z,94.82
2022-08-03T01:10:53.254Z,94.92
2022-08-03T01:12:01.205Z,95.36
2022-08-03T01:12:54.811Z,94.92
2022-08-03T01:14:18.627Z,95.03
2022-08-03T01:14:55.592Z,94.82
2022-08-03T01:15:53.193Z,94.82
2022-08-03T01:16:53.486Z,94.92
2022-08-03T01:17:53.186Z,95.36
2022-08-03T01:18:59.440Z,94.82
2022-08-03T01:19:53.475Z,94.92
2022-08-03T01:20:53.420Z,94.92
2022-08-03T01:21:53.132Z,95.03
2022-08-03T01:22:53.159Z,94.92
2022-08-03T01:23:53.097Z,94.82
2022-08-03T01:24:59.424Z,95.14
2022-08-03T01:25:54.744Z,94.92
2022-08-03T01:26:53.124Z,94.82
2022-08-03T01:27:53.049Z,94.71
2022-08-03T01:28:54.026Z,94.82
2022-08-03T01:29:59.345Z,94.71
2022-08-03T01:30:53.307Z,95.03
2022-08-03T01:32:58.963Z,95.03
2022-08-03T01:33:00.877Z,95.14
2022-08-03T01:33:54.881Z,95.03
2022-08-03T01:34:59.365Z,95.36
2022-08-03T01:35:59.245Z,94.92
2022-08-03T01:36:53.221Z,95.14
2022-08-03T01:37:52.947Z,95.03
2022-08-03T01:38:53.184Z,95.03
2022-08-03T01:39:53.250Z,94.92
2022-08-03T01:41:00.163Z,95.14
2022-08-03T01:41:52.959Z,94.92
2022-08-03T01:42:52.859Z,95.03
2022-08-03T01:44:28.397Z,94.82
2022-08-03T01:44:53.857Z,95.03
2022-08-03T01:45:52.818Z,95.03
2022-08-03T01:46:59.123Z,95.25
2022-08-03T01:47:52.843Z,95.25
2022-08-03T01:48:53.121Z,95.14
2022-08-03T01:49:53.866Z,95.14
2022-08-03T01:50:53.148Z,94.82
2022-08-03T01:52:02.751Z,95.14
2022-08-03T01:53:01.693Z,95.03
2022-08-03T01:53:52.748Z,94.82
2022-08-03T01:54:52.705Z,95.14
2022-08-03T01:55:53.808Z,95.14
2022-08-03T01:56:53.575Z,95.03
2022-08-03T01:58:05.892Z,94.92
2022-08-03T01:58:54.951Z,95.14
2022-08-03T01:59:52.677Z,94.82
2022-08-03T02:00:53.683Z,94.71
2022-08-03T02:02:25.198Z,95.14
2022-08-03T02:02:53.846Z,94.92
2022-08-03T02:04:01.167Z,94.71
2022-08-03T02:04:52.644Z,94.82
2022-08-03T02:06:11.504Z,94.71
2022-08-03T02:07:03.161Z,94.92
2022-08-03T02:07:52.529Z,94.92
2022-08-03T02:08:52.539Z,95.03
2022-08-03T02:09:58.805Z,94.71
2022-08-03T02:10:53.778Z,94.71
2022-08-03T02:11:53.721Z,94.60
2022-08-03T02:12:52.487Z,94.71
2022-08-03T02:13:52.563Z,94.92
2022-08-03T02:14:52.446Z,94.71
2022-08-03T02:15:58.768Z,94.50
2022-08-03T02:16:52.484Z,94.50
2022-08-03T02:17:53.027Z,94.50
2022-08-03T02:18:53.378Z,95.14
2022-08-03T02:19:52.411Z,94.60
2022-08-03T02:20:58.708Z,94.28
2022-08-03T02:21:56.469Z,94.92
2022-08-03T02:22:53.876Z,94.50
2022-08-03T02:23:52.356Z,94.18
2022-08-03T02:24:53.497Z,94.50
2022-08-03T02:25:53.309Z,94.28
2022-08-03T02:26:58.645Z,94.18
2022-08-03T02:27:52.296Z,94.50
2022-08-03T02:28:52.619Z,94.28
2022-08-03T02:29:53.272Z,94.18
2022-08-03T02:30:53.901Z,94.28
2022-08-03T02:31:52.299Z,94.50
2022-08-03T02:32:58.526Z,94.39
2022-08-03T02:33:52.231Z,94.71
2022-08-03T02:34:52.232Z,94.39
2022-08-03T02:35:52.464Z,94.50
2022-08-03T02:36:52.222Z,94.50
2022-08-03T02:37:59.433Z,94.28
2022-08-03T02:38:52.169Z,94.28
2022-08-03T02:39:53.091Z,94.39
2022-08-03T02:40:52.175Z,93.86
2022-08-03T02:41:53.067Z,94.50
2022-08-03T02:43:02.794Z,94.28
2022-08-03T02:44:05.698Z,94.18
2022-08-03T02:44:53.584Z,93.86
2022-08-03T02:45:52.130Z,93.86
2022-08-03T02:46:52.370Z,94.18
2022-08-03T02:47:53.915Z,94.28
2022-08-03T02:48:59.493Z,94.07
2022-08-03T02:49:53.104Z,93.86
2022-08-03T02:50:52.172Z,93.96
2022-08-03T02:51:52.307Z,94.39
2022-08-03T02:52:51.967Z,94.07
2022-08-03T02:53:51.982Z,94.50
2022-08-03T02:54:58.282Z,94.07
2022-08-03T02:55:51.953Z,93.75
2022-08-03T02:56:52.021Z,93.96
2022-08-03T02:57:52.252Z,93.86
2022-08-03T02:58:51.918Z,93.96
2022-08-03T02:59:51.923Z,94.28
2022-08-03T03:00:58.215Z,93.86
2022-08-03T03:01:51.969Z,94.39
2022-08-03T03:02:51.861Z,94.07
2022-08-03T03:03:52.108Z,94.50
2022-08-03T03:05:53.196Z,93.86
2022-08-03T03:05:59.882Z,94.71
2022-08-03T03:06:51.836Z,94.71
2022-08-03T03:07:53.169Z,94.07
2022-08-03T03:08:53.066Z,94.50
2022-08-03T03:09:52.860Z,94.18
2022-08-03T03:10:55.372Z,94.50
2022-08-03T03:11:58.074Z,94.28
2022-08-03T03:12:51.842Z,94.28
2022-08-03T03:13:51.725Z,94.28
2022-08-03T03:14:51.833Z,94.39
2022-08-03T03:15:52.148Z,94.50
2022-08-03T03:16:52.493Z,94.50
2022-08-03T03:17:59.542Z,94.60
2022-08-03T03:18:51.678Z,94.50
2022-08-03T03:19:52.638Z,94.82
2022-08-03T03:20:51.635Z,94.71
2022-08-03T03:21:51.900Z,94.82
2022-08-03T03:22:59.025Z,94.92
2022-08-03T03:23:52.395Z,94.92
2022-08-03T03:24:52.546Z,94.92
2022-08-03T03:25:51.566Z,95.25
2022-08-03T03:26:52.542Z,94.92
2022-08-03T03:27:51.526Z,95.25
2022-08-03T03:28:57.806Z,95.25
2022-08-03T03:29:51.568Z,95.03
2022-08-03T03:30:52.618Z,95.14
2022-08-03T03:31:51.495Z,95.14
2022-08-03T03:32:52.661Z,95.14
2022-08-03T03:33:51.466Z,95.03
2022-08-03T03:34:58.673Z,95.14
2022-08-03T03:35:53.836Z,95.14
2022-08-03T03:36:51.467Z,95.03
2022-08-03T03:37:51.455Z,95.25
2022-08-03T03:38:53.778Z,95.14
2022-08-03T03:39:57.806Z,95.25
2022-08-03T03:40:51.691Z,95.14
2022-08-03T03:41:51.721Z,95.03
2022-08-03T03:42:51.657Z,95.03
2022-08-03T03:43:51.684Z,94.92
2022-08-03T03:44:57.890Z,94.92
2022-08-03T03:45:51.605Z,95.25
2022-08-03T03:46:51.386Z,94.92
2022-08-03T03:47:51.593Z,95.14
2022-08-03T03:48:51.612Z,95.03
2022-08-03T03:49:51.312Z,95.14
2022-08-03T03:50:57.533Z,94.82
2022-08-03T03:51:51.289Z,94.82
2022-08-03T03:52:51.215Z,94.82
2022-08-03T03:53:52.426Z,94.92
2022-08-03T03:54:51.229Z,94.82
2022-08-03T03:55:59.740Z,94.71
2022-08-03T03:56:53.963Z,94.50
2022-08-03T03:57:51.290Z,94.82
2022-08-03T03:58:52.397Z,95.14
2022-08-03T03:59:51.176Z,94.71
2022-08-03T04:00:57.882Z,94.82
2022-08-03T04:01:58.956Z,94.71
2022-08-03T04:02:52.601Z,94.71
2022-08-03T04:03:51.137Z,94.71
2022-08-03T04:04:51.130Z,94.71
2022-08-03T04:05:57.365Z,94.92
2022-08-03T04:06:51.114Z,95.03
2022-08-03T04:07:51.484Z,94.71
2022-08-03T04:08:51.040Z,94.92
2022-08-03T04:09:51.580Z,94.71
2022-08-03T04:10:51.037Z,94.92
2022-08-03T04:11:57.297Z,94.71
2022-08-03T04:12:50.970Z,94.82
2022-08-03T04:13:50.968Z,94.82
2022-08-03T04:14:50.980Z,94.82
2022-08-03T04:15:50.964Z,94.92
2022-08-03T04:16:50.983Z,95.03
2022-08-03T04:17:57.555Z,94.92
2022-08-03T04:18:51.304Z,94.92
2022-08-03T04:19:50.899Z,94.92
2022-08-03T04:20:51.227Z,94.92
2022-08-03T04:21:51.180Z,95.03
2022-08-03T04:22:57.400Z,94.92
2022-08-03T04:23:52.106Z,95.03
2022-08-03T04:24:50.830Z,94.82
2022-08-03T04:25:51.149Z,94.92
2022-08-03T04:26:52.865Z,94.82
2022-08-03T04:28:19.747Z,94.71
2022-08-03T04:28:52.730Z,94.82
2022-08-03T04:29:51.829Z,94.92
2022-08-03T04:30:50.794Z,94.92
2022-08-03T04:31:50.790Z,94.92
2022-08-03T04:32:51.755Z,94.92
2022-08-03T04:33:57.121Z,94.92
2022-08-03T04:34:50.770Z,94.71
2022-08-03T04:36:01.146Z,94.71
2022-08-03T04:36:52.826Z,94.71
2022-08-03T04:37:50.674Z,94.92
2022-08-03T04:38:57.602Z,94.71
2022-08-03T04:39:50.676Z,94.71
2022-08-03T04:40:51.845Z,95.14
2022-08-03T04:42:08.335Z,94.60
2022-08-03T04:42:51.834Z,94.92
2022-08-03T04:43:56.953Z,94.82
2022-08-03T04:44:50.869Z,94.92
2022-08-03T04:45:51.761Z,94.92
2022-08-03T04:46:52.820Z,94.82
2022-08-03T04:47:50.844Z,94.71
2022-08-03T04:48:50.815Z,94.82
2022-08-03T04:49:56.910Z,94.60
2022-08-03T04:50:50.556Z,94.60
2022-08-03T04:51:50.548Z,94.82
2022-08-03T04:52:50.566Z,94.50
2022-08-03T04:53:50.509Z,94.60
2022-08-03T04:54:51.163Z,94.50
2022-08-03T04:55:58.900Z,94.39
2022-08-03T04:56:50.774Z,94.28
2022-08-03T04:57:50.449Z,94.07
2022-08-03T04:58:50.394Z,94.50
2022-08-03T04:59:50.365Z,94.28
2022-08-03T05:00:51.431Z,94.28
2022-08-03T05:01:56.703Z,94.92
2022-08-03T05:02:50.359Z,94.50
2022-08-03T05:03:50.341Z,94.28
2022-08-03T05:04:52.656Z,94.39
2022-08-03T05:06:01.872Z,94.28
2022-08-03T05:06:58.146Z,94.07
2022-08-03T05:07:50.555Z,93.86
2022-08-03T05:08:50.929Z,94.71
2022-08-03T05:09:53.037Z,94.07
2022-08-03T05:10:52.068Z,93.75
2022-08-03T05:11:57.117Z,94.07
2022-08-03T05:12:50.490Z,93.65
2022-08-03T05:13:56.503Z,94.18
2022-08-03T05:14:50.422Z,93.86
2022-08-03T05:15:50.983Z,94.28
2022-08-03T05:16:51.167Z,93.75
2022-08-03T05:17:56.516Z,93.34
2022-08-03T05:18:50.940Z,93.65
2022-08-03T05:19:50.197Z,93.44
2022-08-03T05:20:50.171Z,93.13
2022-08-03T05:21:52.928Z,93.03
2022-08-03T05:22:51.056Z,93.44
2022-08-03T05:23:56.375Z,93.03
2022-08-03T05:24:51.037Z,92.92
2022-08-03T05:25:50.334Z,92.82
2022-08-03T05:26:50.406Z,93.23
2022-08-03T05:27:50.337Z,93.65
2022-08-03T05:28:51.223Z,93.23
2022-08-03T05:29:56.382Z,93.03
2022-08-03T05:30:51.935Z,93.03
2022-08-03T05:31:50.977Z,92.92
2022-08-03T05:32:51.128Z,92.72
2022-08-03T05:33:50.054Z,93.03
2022-08-03T05:34:49.975Z,92.72
2022-08-03T05:36:03.020Z,92.51
2022-08-03T05:36:51.767Z,92.61
2022-08-03T05:37:54.799Z,92.41
2022-08-03T05:38:51.472Z,92.41
2022-08-03T05:39:49.897Z,92.00
2022-08-03T05:40:57.176Z,92.21
2022-08-03T05:41:50.230Z,92.21
2022-08-03T05:42:50.159Z,92.21
2022-08-03T05:43:50.989Z,91.70
2022-08-03T05:44:50.949Z,91.90
2022-08-03T05:45:50.089Z,92.31
2022-08-03T05:46:57.333Z,92.00
2022-08-03T05:47:49.845Z,91.80
2022-08-03T05:48:57.119Z,92.00
2022-08-03T05:49:49.788Z,91.60
2022-08-03T05:50:50.701Z,91.40
2022-08-03T05:51:59.998Z,91.20
2022-08-03T05:52:57.417Z,91.70
2022-08-03T05:53:49.755Z,91.30
2022-08-03T05:54:56.293Z,91.40
2022-08-03T05:55:55.387Z,91.50
2022-08-03T05:56:51.510Z,91.10
2022-08-03T05:57:49.731Z,91.60
2022-08-03T05:59:07.347Z,90.81
2022-08-03T05:59:54.588Z,91.00
2022-08-03T06:00:52.240Z,91.20
2022-08-03T06:01:51.280Z,90.61
2022-08-03T06:02:49.614Z,90.61
2022-08-03T06:03:49.628Z,90.71
2022-08-03T06:04:55.850Z,90.51
2022-08-03T06:05:59.883Z,90.42
2022-08-03T06:06:51.458Z,90.81
2022-08-03T06:07:50.731Z,90.42
2022-08-03T06:08:49.543Z,90.81
2022-08-03T06:10:37.132Z,90.03
2022-08-03T06:10:50.561Z,90.42
2022-08-03T06:11:49.573Z,90.32
2022-08-03T06:12:49.550Z,90.22
2022-08-03T06:13:49.489Z,90.22
2022-08-03T06:14:49.718Z,89.74
2022-08-03T06:15:55.763Z,89.83
2022-08-03T06:16:49.820Z,89.45
2022-08-03T06:17:49.419Z,89.83
2022-08-03T06:18:49.435Z,89.45
2022-08-03T06:19:49.418Z,89.45
2022-08-03T06:20:50.319Z,89.45
2022-08-03T06:21:55.761Z,88.97
2022-08-03T06:22:51.007Z,89.54
2022-08-03T06:23:54.743Z,88.69
2022-08-03T06:24:53.425Z,88.88
2022-08-03T06:25:50.815Z,88.69
2022-08-03T06:26:55.686Z,88.79
2022-08-03T06:27:49.346Z,88.60
2022-08-03T06:28:55.636Z,88.69
2022-08-03T06:29:49.598Z,88.41
2022-08-03T06:30:49.776Z,88.22
2022-08-03T06:31:50.090Z,88.32
2022-08-03T06:32:56.806Z,88.41
2022-08-03T06:34:33.865Z,88.04
2022-08-03T06:34:50.197Z,87.95
2022-08-03T06:35:50.207Z,87.95
2022-08-03T06:36:49.223Z,87.85
2022-08-03T06:37:49.210Z,87.95
2022-08-03T06:39:20.329Z,143.65
2022-08-03T06:40:24.246Z,115.28
2022-08-03T06:41:21.512Z,102.82
2022-08-03T06:42:19.374Z,97.95
2022-08-03T06:43:19.301Z,95.03
2022-08-03T06:44:27.994Z,93.13
2022-08-03T06:45:18.988Z,91.60
2022-08-03T06:46:25.904Z,91.20
2022-08-03T06:47:19.192Z,90.03
2022-08-03T06:48:19.023Z,89.26
2022-08-03T06:49:19.247Z,88.60
2022-08-03T06:50:26.521Z,88.22
2022-08-03T06:51:18.893Z,87.95
2022-08-03T06:52:38.095Z,87.76
2022-08-03T06:53:21.536Z,87.76
2022-08-03T06:54:18.954Z,87.40
2022-08-03T06:55:19.833Z,87.40
2022-08-03T06:56:25.251Z,87.03
2022-08-03T06:57:19.163Z,86.49
2022-08-03T06:58:19.114Z,86.14
2022-08-03T07:00:09.499Z,86.32
2022-08-03T07:00:21.065Z,85.70
2022-08-03T07:01:19.761Z,85.78
2022-08-03T07:02:28.292Z,85.87
2022-08-03T07:03:19.107Z,85.26
2022-08-03T07:04:19.992Z,85.61
2022-08-03T07:05:19.043Z,85.09
2022-08-03T07:06:26.917Z,85.00
2022-08-03T07:07:19.030Z,85.17
2022-08-03T07:08:33.357Z,85.43
2022-08-03T07:09:20.183Z,85.09
2022-08-03T07:10:18.687Z,84.74
2022-08-03T07:11:19.619Z,84.32
2022-08-03T07:12:19.071Z,83.89
2022-08-03T07:13:24.926Z,84.06
2022-08-03T07:14:18.920Z,84.32
2022-08-03T07:15:20.554Z,83.81
2022-08-03T07:16:20.602Z,83.73
2022-08-03T07:17:19.587Z,83.56
2022-08-03T07:18:28.296Z,83.73
2022-08-03T07:19:26.367Z,83.56
2022-08-03T07:20:25.022Z,83.06
2022-08-03T07:21:18.525Z,82.90
2022-08-03T07:22:18.805Z,83.14
2022-08-03T07:23:19.243Z,82.82
2022-08-03T07:24:25.179Z,82.49
2022-08-03T07:25:18.564Z,82.90
2022-08-03T07:26:18.478Z,82.25
2022-08-03T07:27:18.502Z,82.33
2022-08-03T07:28:18.500Z,82.57
2022-08-03T07:29:18.437Z,82.49
2022-08-03T07:30:24.706Z,82.25
2022-08-03T07:31:18.448Z,82.25
2022-08-03T07:32:18.867Z,81.76
2022-08-03T07:33:18.498Z,81.68
2022-08-03T07:34:18.396Z,81.76
2022-08-03T07:35:25.507Z,81.53
2022-08-03T07:36:18.589Z,81.29
2022-08-03T07:37:18.638Z,81.53
2022-08-03T07:38:21.073Z,81.61
2022-08-03T07:39:18.798Z,81.45
2022-08-03T07:40:25.129Z,81.13
2022-08-03T07:41:19.830Z,81.13
2022-08-03T07:42:18.913Z,81.13
2022-08-03T07:43:18.257Z,80.82
2022-08-03T07:44:19.198Z,81.05
2022-08-03T07:45:24.601Z,80.51
2022-08-03T07:46:18.240Z,80.51
2022-08-03T07:47:22.351Z,80.74
2022-08-03T07:48:18.189Z,80.28
2022-08-03T07:49:18.315Z,80.28
2022-08-03T07:50:25.355Z,80.04
2022-08-03T07:51:18.319Z,80.35
2022-08-03T07:52:18.456Z,79.66
2022-08-03T07:53:18.112Z,80.12
2022-08-03T07:54:18.469Z,79.89
2022-08-03T07:55:24.395Z,79.66
2022-08-03T07:56:18.070Z,79.29
2022-08-03T07:57:19.054Z,79.51
2022-08-03T07:58:23.659Z,79.29
2022-08-03T07:59:19.911Z,79.21
2022-08-03T08:00:26.047Z,79.06
2022-08-03T08:01:26.027Z,78.84
2022-08-03T08:03:11.746Z,125.47
2022-08-03T08:05:41.681Z,133.68
2022-08-03T08:06:38.733Z,106.08
2022-08-03T08:07:38.587Z,94.79
2022-08-03T08:08:38.764Z,90.61
2022-08-03T08:09:40.280Z,87.12
2022-08-03T08:11:10.488Z,135.63
2022-08-03T08:12:19.386Z,107.86
2022-08-03T08:13:17.015Z,96.04
2022-08-03T08:14:18.969Z,91.10
2022-08-03T08:15:15.220Z,87.76
2022-08-03T08:16:54.977Z,135.85
2022-08-03T08:17:58.691Z,107.10
2022-08-03T08:18:57.853Z,95.28
2022-08-03T08:20:32.083Z,91.50
2022-08-03T08:20:56.720Z,87.31
2022-08-03T08:22:02.448Z,84.83
2022-08-03T08:23:00.942Z,83.31
2022-08-03T08:23:59.096Z,82.17
2022-08-03T08:25:01.030Z,81.45
2022-08-03T08:26:03.497Z,80.58
2022-08-03T08:27:07.349Z,80.20
2022-08-03T08:28:29.587Z,79.59
2022-08-03T08:28:51.084Z,79.14
2022-08-03T08:29:54.561Z,78.99
2022-08-03T08:31:11.770Z,78.40
2022-08-03T08:31:49.083Z,78.10
2022-08-03T08:32:51.001Z,77.96
2022-08-03T08:34:03.658Z,78.10
2022-08-03T08:34:52.178Z,77.38
2022-08-03T08:35:49.083Z,77.96
2022-08-03T08:36:49.404Z,76.96
2022-08-03T08:37:56.451Z,76.96
2022-08-03T08:38:48.977Z,76.53
2022-08-03T08:39:50.961Z,76.53
2022-08-03T08:40:48.962Z,76.19
2022-08-03T08:41:56.501Z,76.05
2022-08-03T08:42:58.731Z,75.70
2022-08-03T08:44:00.012Z,76.32
2022-08-03T09:47:28.410Z,47.79
2022-08-03T09:48:27.000Z,44.45
2022-08-03T09:49:27.012Z,44.78
2022-08-03T09:50:27.929Z,46.21
2022-08-03T09:52:30.120Z,47.58
2022-08-03T09:52:49.253Z,49.61
2022-08-03T09:53:28.395Z,50.32
2022-08-03T09:54:26.902Z,52.01
2022-08-03T09:56:34.095Z,53.00
2022-08-03T09:56:35.966Z,53.92
2022-08-03T09:57:28.337Z,54.73
2022-08-03T09:58:33.228Z,55.53
2022-08-03T09:59:27.582Z,56.27
2022-08-03T10:00:26.887Z,56.65
2022-08-03T10:01:26.809Z,57.19
2022-08-03T10:02:27.794Z,57.55
2022-08-03T10:03:26.767Z,58.07
2022-08-03T10:04:26.754Z,58.47
2022-08-03T10:05:26.702Z,58.60
2022-08-03T10:06:28.952Z,59.17
2022-08-03T10:07:27.500Z,59.38
2022-08-03T10:08:26.810Z,59.64
2022-08-03T10:09:33.025Z,59.81
2022-08-03T10:10:31.199Z,60.20
2022-08-03T10:11:29.117Z,60.33
2022-08-03T10:12:26.756Z,60.28
2022-08-03T10:13:47.629Z,60.72
2022-08-03T10:14:26.875Z,60.72
2022-08-03T10:16:23.605Z,60.90
2022-08-03T10:16:27.842Z,60.90
2022-08-03T10:17:26.676Z,61.30
2022-08-03T10:18:26.557Z,61.21
2022-08-03T10:19:26.810Z,61.61
2022-08-03T10:20:26.560Z,61.66
2022-08-03T10:21:32.875Z,61.75
2022-08-03T10:22:26.577Z,61.61
2022-08-03T10:23:27.842Z,62.21
2022-08-03T10:24:26.487Z,62.21
2022-08-03T10:25:33.362Z,62.12
2022-08-03T10:26:28.045Z,62.12
2022-08-03T10:27:32.759Z,62.21
2022-08-03T10:28:26.381Z,62.25
2022-08-03T10:29:26.442Z,62.16
2022-08-03T10:30:26.411Z,62.07
2022-08-03T10:31:26.423Z,62.25
2022-08-03T10:32:32.846Z,62.30
2022-08-03T10:33:50.927Z,62.35
2022-08-03T10:34:27.348Z,62.21
2022-08-03T10:35:26.361Z,62.39
2022-08-03T10:36:26.318Z,62.49
2022-08-03T10:37:36.527Z,62.67
2022-08-03T10:38:26.307Z,62.44
2022-08-03T10:39:26.276Z,62.39
2022-08-03T10:40:47.530Z,62.44
2022-08-03T10:41:27.315Z,62.25
2022-08-03T10:42:32.597Z,62.49
2022-08-03T10:43:26.234Z,62.39
2022-08-03T10:44:26.232Z,62.49
2022-08-03T10:45:26.334Z,62.25
2022-08-03T10:46:26.199Z,62.44
2022-08-03T10:47:26.265Z,62.35
2022-08-03T10:48:32.586Z,62.21
2022-08-03T10:49:34.989Z,62.16
2022-08-03T10:50:27.779Z,62.21
2022-08-03T10:51:30.280Z,61.93
2022-08-03T10:52:32.956Z,62.30
2022-08-03T10:53:33.903Z,62.07
2022-08-03T10:54:26.152Z,62.21
2022-08-03T10:55:35.634Z,62.12
2022-08-03T10:56:45.886Z,62.21
2022-08-03T10:57:27.228Z,62.02
2022-08-03T10:58:32.400Z,61.93
2022-08-03T10:59:28.101Z,62.02
2022-08-03T11:00:26.071Z,62.07
2022-08-03T11:01:26.040Z,62.35
2022-08-03T11:02:28.102Z,61.98
2022-08-03T11:03:26.065Z,61.98
2022-08-03T11:04:32.324Z,62.07
2022-08-03T11:05:26.052Z,62.21
2022-08-03T11:06:25.985Z,61.89
2022-08-03T11:07:25.995Z,62.02
2022-08-03T11:08:26.028Z,62.02
2022-08-03T11:09:32.266Z,61.70
2022-08-03T11:10:26.887Z,61.61
2022-08-03T11:11:26.002Z,61.75
2022-08-03T11:12:30.855Z,61.84
2022-08-03T11:13:27.657Z,61.48
2022-08-03T11:14:26.240Z,61.57
2022-08-03T11:15:32.434Z,61.61
2022-08-03T11:16:27.282Z,61.66
2022-08-03T11:17:26.011Z,61.52
2022-08-03T11:18:27.408Z,61.57
2022-08-03T11:19:27.561Z,61.66
2022-08-03T11:20:25.850Z,61.57
2022-08-03T11:21:33.095Z,61.48
2022-08-03T11:22:25.807Z,61.30
2022-08-03T11:24:04.598Z,61.25
2022-08-03T11:24:26.756Z,61.39
2022-08-03T11:25:53.686Z,61.12
2022-08-03T11:26:33.282Z,61.12
2022-08-03T11:27:26.096Z,61.43
2022-08-03T11:28:25.729Z,60.99
2022-08-03T11:29:25.781Z,61.21
2022-08-03T11:30:27.546Z,61.03
2022-08-03T11:31:48.738Z,61.21
2022-08-03T11:32:32.977Z,61.21
2022-08-03T11:33:25.702Z,60.99
2022-08-03T11:34:26.693Z,61.12
2022-08-03T11:35:25.907Z,61.03
2022-08-03T11:36:32.029Z,61.03
2022-08-03T11:37:31.493Z,61.12
2022-08-03T11:38:33.410Z,60.85
2022-08-03T11:39:25.610Z,60.99
2022-08-03T11:40:25.551Z,61.07
2022-08-03T11:41:25.545Z,60.81
2022-08-03T11:42:25.654Z,60.68
2022-08-03T11:43:30.416Z,60.63
2022-08-03T11:44:33.339Z,60.76
2022-08-03T11:45:25.503Z,60.76
2022-08-03T11:46:28.408Z,60.68
2022-08-03T11:47:25.493Z,60.72
2022-08-03T11:48:25.609Z,60.50
2022-08-03T11:49:26.781Z,60.37
2022-08-03T11:50:31.768Z,60.24
2022-08-03T11:51:25.801Z,60.37
2022-08-03T11:52:27.084Z,60.24
2022-08-03T11:53:25.475Z,60.15
2022-08-03T11:54:25.462Z,59.98
2022-08-03T11:55:30.281Z,60.15
2022-08-03T11:56:36.999Z,60.07
2022-08-03T11:59:02.642Z,60.02
2022-08-03T11:59:17.314Z,59.85
2022-08-03T11:59:48.639Z,60.07
2022-08-03T12:00:26.037Z,59.94
2022-08-03T12:01:25.457Z,59.81
2022-08-03T12:02:31.932Z,59.90
2022-08-03T12:03:25.709Z,59.60
2022-08-03T12:04:26.192Z,59.64
2022-08-03T12:05:25.311Z,59.72
2022-08-03T12:06:26.500Z,59.47
2022-08-03T12:08:03.256Z,59.64
2022-08-03T12:11:33.921Z,83.31
2022-08-03T12:12:34.089Z,71.32
2022-08-03T12:14:45.692Z,66.29
2022-08-03T12:14:50.424Z,63.82
2022-08-03T12:15:36.319Z,62.58
2022-08-03T12:16:33.877Z,61.52
2022-08-03T12:17:40.314Z,60.76
2022-08-03T12:18:40.159Z,60.41
2022-08-03T12:19:35.314Z,60.11
2022-08-03T12:20:35.249Z,59.98
2022-08-03T12:21:34.061Z,59.68
2022-08-03T12:22:33.899Z,59.30
2022-08-03T12:23:40.162Z,59.22
2022-08-03T12:24:34.041Z,58.97
2022-08-03T12:25:39.322Z,58.84
2022-08-03T12:26:35.633Z,58.72
2022-08-03T12:27:34.148Z,58.51
2022-08-03T12:28:37.810Z,58.39
2022-08-03T12:29:40.138Z,58.35
2022-08-03T12:30:34.614Z,58.31
2022-08-03T12:31:33.716Z,58.15
2022-08-03T12:32:34.021Z,58.11
2022-08-03T12:33:34.015Z,57.87
2022-08-03T12:34:33.700Z,57.83
2022-08-03T12:35:40.008Z,57.67
2022-08-03T12:36:35.193Z,57.63
2022-08-03T12:37:34.005Z,57.59
2022-08-03T12:38:36.436Z,57.63
2022-08-03T12:39:33.575Z,57.31
2022-08-03T12:40:34.210Z,57.43
2022-08-03T12:41:41.042Z,56.96
2022-08-03T12:42:34.960Z,57.19
2022-08-03T12:43:39.464Z,57.04
2022-08-03T12:44:35.170Z,56.62
2022-08-03T12:45:33.566Z,56.77
2022-08-03T12:46:43.959Z,56.77
2022-08-03T12:47:35.101Z,56.50
2022-08-03T12:48:33.824Z,56.73
2022-08-03T12:49:33.505Z,56.50
2022-08-03T12:50:35.059Z,56.16
2022-08-03T12:51:33.530Z,56.08
2022-08-03T12:52:40.154Z,56.20
2022-08-03T12:53:33.503Z,56.16
2022-08-03T12:54:37.437Z,55.75
2022-08-03T12:55:57.311Z,55.93
2022-08-03T12:56:35.447Z,55.78
2022-08-03T12:57:41.267Z,55.53
2022-08-03T12:58:33.399Z,55.53
2022-08-03T12:59:35.145Z,55.45
2022-08-03T13:00:33.358Z,55.60
2022-08-03T13:01:34.498Z,55.45
2022-08-03T13:02:40.787Z,55.31
2022-08-03T13:03:42.396Z,55.20
2022-08-03T13:04:34.801Z,55.16
2022-08-03T13:05:34.417Z,55.45
2022-08-03T13:06:33.516Z,55.16
2022-08-03T13:07:39.864Z,55.27
2022-08-03T13:08:34.790Z,55.12
2022-08-03T13:09:33.651Z,55.31
2022-08-03T13:10:33.237Z,55.20
2022-08-03T13:11:55.929Z,55.09
2022-08-03T13:12:34.220Z,55.12
2022-08-03T13:13:39.842Z,55.31
2022-08-03T13:14:33.230Z,55.09
2022-08-03T13:15:33.537Z,55.02
2022-08-03T13:16:34.916Z,54.76
2022-08-03T13:17:34.030Z,54.91
2022-08-03T13:18:56.507Z,54.76
2022-08-03T13:19:33.135Z,54.69
2022-08-03T13:20:33.119Z,54.69
2022-08-03T13:21:33.099Z,54.51
2022-08-03T13:22:38.106Z,54.34
2022-08-03T13:23:54.069Z,54.41
2022-08-03T13:24:40.505Z,54.44
2022-08-03T13:25:35.353Z,54.34
2022-08-03T13:26:33.280Z,54.20
2022-08-03T13:28:03.422Z,54.09
2022-08-03T13:28:34.900Z,54.06
2022-08-03T13:29:44.056Z,54.16
2022-08-03T13:30:55.672Z,54.02
2022-08-03T13:31:33.958Z,54.02
2022-08-03T13:32:35.072Z,54.02
2022-08-03T13:33:33.127Z,53.81
2022-08-03T13:34:40.248Z,53.85
2022-08-03T13:35:32.955Z,53.88
2022-08-03T13:36:52.954Z,53.74
2022-08-03T13:37:33.993Z,53.57
2022-08-03T13:38:33.242Z,53.54
2022-08-03T13:39:57.476Z,53.37
2022-08-03T13:40:55.720Z,53.47
2022-08-03T13:41:33.363Z,53.37
2022-08-03T13:42:32.816Z,53.17
2022-08-03T13:43:36.825Z,53.10
2022-08-03T13:44:33.927Z,53.17
2022-08-03T13:45:39.048Z,53.13
2022-08-03T13:46:53.766Z,53.13
2022-08-03T13:47:32.812Z,53.23
2022-08-03T13:48:35.780Z,53.00
2022-08-03T13:49:38.583Z,52.93
2022-08-03T13:50:42.888Z,53.27
2022-08-03T13:51:34.427Z,53.06
2022-08-03T13:52:32.787Z,52.96
2022-08-03T13:53:32.741Z,52.96
2022-08-03T13:54:32.708Z,53.03
2022-08-03T13:55:32.719Z,53.13
2022-08-03T13:56:39.034Z,53.00
2022-08-03T13:58:06.314Z,52.96
2022-08-03T13:58:33.619Z,52.76
2022-08-03T13:59:32.829Z,52.66
2022-08-03T14:00:32.678Z,52.53
2022-08-03T14:01:55.004Z,52.76
2022-08-03T14:02:34.142Z,52.70